Time;durP1;ratioP1;P1;durP2;ratioP2;P2;SDS_P1;SDS_P2;PMS_P1;PMS_P2;Temp;Humidity;BMP_temperature;BMP_pressure;BME280_temperature;BME280_humidity;BME280_pressure;Samples;Min_cycle;Max_cycle;Signal;HPM_P1;HPM_P2
2022/07/06 00:01:30;;;;;;;1.15;0.80;;;17.80;57.50;;;;;;5010713;28;20456;-74
2022/07/06 00:03:56;;;;;;;2.22;0.90;;;17.70;57.60;;;;;;5010597;28;20056;-75
2022/07/06 00:06:23;;;;;;;3.83;0.98;;;17.70;57.60;;;;;;5009270;28;20025;-76
2022/07/06 00:08:49;;;;;;;2.10;1.00;;;17.50;58.00;;;;;;5010338;28;20021;-75
2022/07/06 00:11:15;;;;;;;2.72;0.90;;;17.50;58.40;;;;;;5010491;28;20030;-75
2022/07/06 00:13:40;;;;;;;2.60;1.10;;;17.50;58.80;;;;;;5010504;28;20041;-75
2022/07/06 00:16:06;;;;;;;6.53;0.88;;;17.40;58.60;;;;;;5010276;28;20467;-75
2022/07/06 00:18:31;;;;;;;3.70;0.70;;;17.40;58.80;;;;;;5010356;28;20467;-75
2022/07/06 00:20:57;;;;;;;1.10;1.00;;;17.40;58.50;;;;;;5010375;28;20118;-75
2022/07/06 00:23:23;;;;;;;1.55;1.15;;;17.30;58.70;;;;;;5009056;28;20065;-75
2022/07/06 00:25:48;;;;;;;2.40;0.73;;;17.30;58.90;;;;;;5010263;28;20034;-75
2022/07/06 00:28:14;;;;;;;2.22;1.10;;;17.30;59.00;;;;;;5010202;28;20034;-74
2022/07/06 00:30:40;;;;;;;2.38;0.95;;;17.30;59.50;;;;;;5010079;28;20042;-75
2022/07/06 00:33:06;;;;;;;1.88;1.08;;;17.30;59.60;;;;;;5010076;28;20038;-74
2022/07/06 00:35:32;;;;;;;3.92;0.98;;;17.30;59.70;;;;;;5010079;28;20053;-75
2022/07/06 00:37:58;;;;;;;2.55;1.00;;;17.20;59.70;;;;;;5010121;28;20119;-75
2022/07/06 00:40:23;;;;;;;2.70;0.93;;;17.20;60.00;;;;;;5010251;28;20095;-75
2022/07/06 00:42:49;;;;;;;1.60;0.95;;;17.20;59.80;;;;;;5010147;28;20121;-76
2022/07/06 00:45:16;;;;;;;1.25;0.73;;;17.10;59.80;;;;;;5010120;28;20373;-75
2022/07/06 00:47:42;;;;;;;2.83;1.00;;;17.00;60.00;;;;;;5009841;28;20041;-74
2022/07/06 00:50:22;;;;;;;2.65;0.80;;;17.00;60.40;;;;;;5010125;28;20022;-75
2022/07/06 00:52:53;;;;;;;1.17;0.77;;;16.90;60.30;;;;;;5008660;28;20034;-76
2022/07/06 00:55:33;;;;;;;2.15;1.25;;;16.90;60.70;;;;;;5009906;28;20518;-75
2022/07/06 00:58:01;;;;;;;3.58;1.10;;;16.80;60.80;;;;;;5010141;28;20041;-77
2022/07/06 01:00:28;;;;;;;2.25;0.88;;;16.70;61.50;;;;;;5015935;28;20051;-74
2022/07/06 01:02:54;;;;;;;1.60;0.85;;;16.80;61.30;;;;;;5014363;28;20030;-75
2022/07/06 01:05:20;;;;;;;3.42;0.93;;;16.80;61.50;;;;;;5013286;28;20026;-74
2022/07/06 01:07:48;;;;;;;2.92;0.93;;;16.70;61.70;;;;;;5013444;28;20067;-74
2022/07/06 01:10:16;;;;;;;2.00;1.00;;;16.80;61.50;;;;;;5012090;28;20032;-74
2022/07/06 01:12:43;;;;;;;1.17;0.80;;;16.80;61.10;;;;;;5013302;28;20075;-75
2022/07/06 01:15:11;;;;;;;2.05;1.05;;;16.80;61.00;;;;;;5013419;28;20022;-75
2022/07/06 01:17:39;;;;;;;1.30;1.20;;;16.70;60.90;;;;;;5013001;28;20026;-74
2022/07/06 01:20:09;;;;;;;1.35;1.00;;;16.70;61.60;;;;;;5013162;28;20434;-74
2022/07/06 01:22:34;;;;;;;4.45;1.20;;;16.60;61.80;;;;;;5013302;28;20127;-76
2022/07/06 01:25:00;;;;;;;3.40;1.00;;;16.60;62.30;;;;;;5013328;28;20050;-75
2022/07/06 01:27:25;;;;;;;2.13;1.10;;;16.60;62.00;;;;;;5013174;28;20083;-75
2022/07/06 01:29:51;;;;;;;2.42;1.10;;;16.60;62.10;;;;;;5012940;28;20055;-76
2022/07/06 01:32:16;;;;;;;2.22;0.90;;;16.50;62.20;;;;;;5012752;28;20138;-75
2022/07/06 01:34:42;;;;;;;2.33;1.10;;;16.60;62.10;;;;;;5012936;28;20580;-76
2022/07/06 01:37:08;;;;;;;5.80;1.30;;;16.40;62.20;;;;;;5012970;28;20486;-75
2022/07/06 01:39:33;;;;;;;1.08;0.98;;;16.40;62.40;;;;;;5013130;28;20046;-74
2022/07/06 01:41:59;;;;;;;2.60;1.00;;;16.30;62.70;;;;;;5013000;28;20462;-74
2022/07/06 01:44:24;;;;;;;6.13;1.40;;;16.30;62.70;;;;;;5011686;28;20200;-74
2022/07/06 01:46:50;;;;;;;5.55;1.23;;;16.20;63.50;;;;;;5012739;28;20065;-76
2022/07/06 01:49:15;;;;;;;2.30;1.02;;;16.20;63.70;;;;;;5012639;28;20030;-75
2022/07/06 01:51:41;;;;;;;4.03;1.23;;;16.20;63.90;;;;;;5012691;28;20091;-74
2022/07/06 01:54:06;;;;;;;3.08;1.35;;;16.20;63.70;;;;;;5012726;28;20034;-75
2022/07/06 01:56:32;;;;;;;3.58;1.42;;;16.20;63.70;;;;;;5012752;28;20512;-75
2022/07/06 01:58:58;;;;;;;4.93;1.27;;;16.10;64.10;;;;;;5012654;28;20079;-75
2022/07/06 02:01:23;;;;;;;1.83;1.02;;;16.00;64.20;;;;;;5012646;28;20025;-75
2022/07/06 02:03:49;;;;;;;3.05;1.40;;;16.00;64.30;;;;;;5012405;28;20104;-74
2022/07/06 02:06:15;;;;;;;2.05;1.33;;;16.00;64.70;;;;;;5012739;28;20026;-74
2022/07/06 02:08:42;;;;;;;1.65;1.15;;;15.90;64.80;;;;;;5012401;28;20022;-75
2022/07/06 02:11:09;;;;;;;2.00;1.40;;;15.90;65.20;;;;;;5011413;28;20021;-75
2022/07/06 02:13:35;;;;;;;2.10;1.40;;;15.80;65.30;;;;;;5012404;28;20033;-75
2022/07/06 02:16:01;;;;;;;0.80;0.80;;;15.80;65.30;;;;;;5012396;28;20014;-74
2022/07/06 02:18:27;;;;;;;5.22;1.15;;;15.80;65.10;;;;;;5012250;28;20113;-74
2022/07/06 02:20:52;;;;;;;3.03;1.50;;;15.90;65.00;;;;;;5012319;28;20492;-75
2022/07/06 02:23:18;;;;;;;3.13;1.17;;;15.80;64.60;;;;;;5012445;28;20022;-81
2022/07/06 02:25:44;;;;;;;3.72;1.52;;;15.80;65.00;;;;;;5013087;28;20026;-75
2022/07/06 02:28:10;;;;;;;2.35;1.15;;;15.80;64.70;;;;;;5012409;28;20331;-78
2022/07/06 02:30:35;;;;;;;2.67;1.30;;;15.70;65.30;;;;;;5012499;28;20049;-77
2022/07/06 02:33:01;;;;;;;2.05;1.30;;;15.60;65.50;;;;;;5012382;28;20086;-74
2022/07/06 02:35:27;;;;;;;1.40;1.30;;;15.70;65.90;;;;;;5012144;28;20020;-75
2022/07/06 02:37:52;;;;;;;6.68;1.52;;;15.60;66.00;;;;;;5012242;28;20058;-75
2022/07/06 02:40:18;;;;;;;3.88;1.33;;;15.60;66.00;;;;;;5012384;28;20033;-78
2022/07/06 02:42:43;;;;;;;1.45;1.35;;;15.60;66.20;;;;;;5012161;28;20022;-77
2022/07/06 02:45:10;;;;;;;1.60;1.30;;;15.50;66.60;;;;;;5011993;28;20037;-76
2022/07/06 02:47:35;;;;;;;3.90;1.50;;;15.50;66.30;;;;;;5011760;28;20033;-76
2022/07/06 02:50:01;;;;;;;2.42;1.85;;;15.50;66.30;;;;;;5011842;28;20093;-75
2022/07/06 02:52:27;;;;;;;1.45;1.30;;;15.40;66.40;;;;;;5011957;28;20030;-76
2022/07/06 02:54:53;;;;;;;2.20;1.23;;;15.40;66.30;;;;;;5011865;28;20517;-76
2022/07/06 02:57:18;;;;;;;3.83;1.25;;;15.50;66.10;;;;;;5011831;28;20030;-74
2022/07/06 02:59:45;;;;;;;2.55;1.48;;;15.50;66.30;;;;;;5011693;28;20068;-75
2022/07/06 03:02:11;;;;;;;4.70;1.70;;;15.40;66.60;;;;;;5011786;28;20022;-74
2022/07/06 03:04:37;;;;;;;4.43;1.50;;;15.40;66.60;;;;;;5011715;28;20029;-74
2022/07/06 03:07:03;;;;;;;2.00;1.40;;;15.40;66.50;;;;;;5011653;28;20108;-74
2022/07/06 03:09:28;;;;;;;2.85;1.60;;;15.40;66.90;;;;;;5011718;28;20379;-74
2022/07/06 03:11:54;;;;;;;2.03;1.55;;;15.20;67.00;;;;;;5011621;28;20067;-74
2022/07/06 03:14:19;;;;;;;2.60;1.85;;;15.20;67.10;;;;;;5011514;28;20026;-74
2022/07/06 03:16:45;;;;;;;3.38;1.65;;;15.20;67.70;;;;;;5011568;28;20101;-74
2022/07/06 03:19:11;;;;;;;2.45;1.80;;;15.20;67.80;;;;;;5011221;28;20025;-76
2022/07/06 03:21:36;;;;;;;2.65;1.63;;;15.10;67.80;;;;;;5011417;28;20650;-75
2022/07/06 03:24:02;;;;;;;2.13;1.65;;;15.10;68.20;;;;;;5011197;28;20042;-75
2022/07/06 03:26:28;;;;;;;1.70;1.60;;;15.10;68.40;;;;;;5011210;28;20478;-77
2022/07/06 03:28:53;;;;;;;2.95;1.90;;;15.10;68.30;;;;;;5011220;28;20030;-77
2022/07/06 03:31:19;;;;;;;3.35;1.73;;;15.10;68.30;;;;;;5011108;28;20102;-76
2022/07/06 03:33:44;;;;;;;2.38;1.50;;;15.10;68.10;;;;;;5011279;28;20029;-77
2022/07/06 03:36:10;;;;;;;3.63;1.60;;;15.10;68.30;;;;;;5011371;28;20467;-78
2022/07/06 03:38:36;;;;;;;3.38;1.80;;;15.10;68.30;;;;;;5010970;28;20061;-76
2022/07/06 03:41:02;;;;;;;2.83;1.92;;;15.10;68.10;;;;;;5011236;28;20018;-76
2022/07/06 03:43:28;;;;;;;3.53;1.90;;;15.20;68.00;;;;;;5011034;28;20058;-80
2022/07/06 03:45:53;;;;;;;3.90;1.88;;;15.10;68.10;;;;;;5011079;28;20453;-77
2022/07/06 03:48:19;;;;;;;3.45;1.95;;;15.10;68.30;;;;;;5010938;28;20022;-80
2022/07/06 03:50:44;;;;;;;3.90;2.00;;;15.10;68.30;;;;;;5011004;28;20029;-76
2022/07/06 03:53:10;;;;;;;3.85;1.90;;;15.00;69.00;;;;;;5011764;28;20529;-78
2022/07/06 03:55:36;;;;;;;3.47;1.42;;;15.10;68.30;;;;;;5011989;28;20018;-77
2022/07/06 03:58:01;;;;;;;2.47;1.77;;;15.10;68.20;;;;;;5011173;28;20052;-77
2022/07/06 04:00:27;;;;;;;3.47;1.80;;;15.10;68.20;;;;;;5010913;28;20034;-78
2022/07/06 04:02:52;;;;;;;4.43;2.35;;;15.20;68.00;;;;;;5010929;28;20065;-78
2022/07/06 04:05:21;;;;;;;4.63;2.35;;;15.10;68.00;;;;;;5009391;28;20025;-79
2022/07/06 04:07:48;;;;;;;3.75;2.15;;;15.00;68.20;;;;;;5010747;28;20018;-79
2022/07/06 04:10:15;;;;;;;3.90;2.28;;;15.00;68.40;;;;;;5010757;28;20074;-76
2022/07/06 04:12:44;;;;;;;2.85;1.73;;;15.00;68.40;;;;;;5010651;28;20037;-78
2022/07/06 04:15:11;;;;;;;2.55;1.73;;;15.00;68.40;;;;;;5010531;28;20113;-77
2022/07/06 04:17:52;;;;;;;3.20;2.20;;;15.20;68.00;;;;;;5010545;28;20085;-77
2022/07/06 04:20:18;;;;;;;2.60;1.77;;;15.20;67.60;;;;;;5010542;28;20441;-76
2022/07/06 04:22:44;;;;;;;3.63;2.10;;;15.30;67.50;;;;;;5010773;28;20051;-76
2022/07/06 04:25:10;;;;;;;3.60;2.25;;;15.30;67.40;;;;;;5010554;28;20030;-77
2022/07/06 04:27:35;;;;;;;3.70;1.80;;;15.40;67.50;;;;;;5013999;28;20045;-77
2022/07/06 04:30:03;;;;;;;3.28;2.17;;;15.40;67.10;;;;;;5010417;28;20053;-77
2022/07/06 04:32:28;;;;;;;4.72;2.08;;;15.40;67.10;;;;;;5010023;28;20522;-77
2022/07/06 04:34:54;;;;;;;3.13;2.20;;;15.40;67.30;;;;;;5009270;28;20052;-77
2022/07/06 04:37:20;;;;;;;5.05;2.13;;;15.40;67.50;;;;;;5010288;28;20136;-77
2022/07/06 04:39:45;;;;;;;4.85;2.17;;;15.40;67.30;;;;;;5010039;28;20433;-77
2022/07/06 04:42:11;;;;;;;4.00;1.95;;;15.50;67.10;;;;;;5010124;28;20076;-77
2022/07/06 04:44:36;;;;;;;3.08;2.05;;;15.60;66.80;;;;;;5010126;28;20505;-77
2022/07/06 04:47:02;;;;;;;4.65;2.22;;;15.60;66.90;;;;;;5009862;28;20026;-77
2022/07/06 04:49:27;;;;;;;2.97;2.08;;;15.70;66.40;;;;;;5010332;28;20108;-77
2022/07/06 04:51:53;;;;;;;5.18;2.03;;;15.70;66.50;;;;;;5009704;28;20459;-78
2022/07/06 04:54:19;;;;;;;5.07;2.33;;;15.80;65.80;;;;;;5009970;28;20090;-77
2022/07/06 04:56:46;;;;;;;4.50;2.28;;;15.80;65.80;;;;;;5010367;28;20066;-76
2022/07/06 04:59:12;;;;;;;7.20;2.17;;;15.90;66.00;;;;;;5012383;28;20036;-77
2022/07/06 05:01:38;;;;;;;4.78;2.22;;;16.00;65.50;;;;;;5009956;28;20117;-76
2022/07/06 05:04:03;;;;;;;4.43;2.65;;;16.00;65.70;;;;;;5010044;28;20078;-77
2022/07/06 05:06:29;;;;;;;7.28;3.60;;;16.20;65.20;;;;;;5009458;28;20049;-77
2022/07/06 05:08:54;;;;;;;7.10;4.53;;;16.30;64.80;;;;;;5009711;28;20057;-76
2022/07/06 05:11:20;;;;;;;13.32;6.20;;;16.40;64.30;;;;;;5009688;28;20026;-77
2022/07/06 05:13:45;;;;;;;15.77;8.05;;;16.50;64.30;;;;;;5009630;28;20074;-76
2022/07/06 05:16:11;;;;;;;18.65;10.13;;;16.70;64.00;;;;;;5009318;28;20018;-75
2022/07/06 05:18:37;;;;;;;19.65;12.05;;;16.70;63.40;;;;;;5009319;28;20159;-77
2022/07/06 05:21:03;;;;;;;19.65;11.10;;;16.80;63.30;;;;;;5008214;28;20158;-76
2022/07/06 05:23:28;;;;;;;12.77;7.22;;;16.90;63.40;;;;;;5009083;28;20026;-77
2022/07/06 05:25:54;;;;;;;13.77;8.38;;;16.90;62.60;;;;;;5009366;28;20026;-77
2022/07/06 05:28:20;;;;;;;10.82;6.70;;;17.10;62.40;;;;;;5009129;28;20028;-76
2022/07/06 05:30:45;;;;;;;11.60;7.43;;;17.10;62.20;;;;;;5008633;28;20093;-77
2022/07/06 05:33:11;;;;;;;11.45;7.22;;;17.20;61.90;;;;;;5008918;28;20042;-76
2022/07/06 05:35:36;;;;;;;9.00;5.70;;;17.30;61.80;;;;;;5009041;28;20466;-76
2022/07/06 05:38:02;;;;;;;8.75;5.78;;;17.40;61.50;;;;;;5008005;28;20099;-77
2022/07/06 05:40:28;;;;;;;8.65;5.70;;;17.60;61.00;;;;;;5009134;28;20505;-77
2022/07/06 05:42:53;;;;;;;10.40;5.55;;;17.70;60.40;;;;;;5009084;28;20033;-77
2022/07/06 05:45:19;;;;;;;7.75;5.45;;;17.70;60.00;;;;;;5009835;28;20018;-77
2022/07/06 05:50:29;;;;;;;6.85;4.05;;;17.80;58.70;;;;;;5012561;28;20032;-77
2022/07/06 05:53:00;;;;;;;6.97;4.25;;;17.90;57.70;;;;;;5012338;28;20121;-78
2022/07/06 05:55:26;;;;;;;5.60;3.08;;;17.80;58.10;;;;;;5012741;28;20029;-81
2022/07/06 05:57:53;;;;;;;5.35;2.40;;;17.80;58.00;;;;;;5012806;28;20028;-77
2022/07/06 06:00:23;;;;;;;8.40;2.85;;;17.90;57.50;;;;;;5012851;28;20014;-81
2022/07/06 06:02:49;;;;;;;7.28;3.03;;;18.00;57.10;;;;;;5012447;28;20105;-79
2022/07/06 06:05:15;;;;;;;6.40;2.88;;;18.00;56.90;;;;;;5012423;28;20053;-79
2022/07/06 06:07:41;;;;;;;4.35;2.70;;;18.10;56.70;;;;;;5012158;28;20105;-79
2022/07/06 06:10:09;;;;;;;5.47;2.90;;;18.00;57.70;;;;;;5012493;28;20123;-77
2022/07/06 06:12:35;;;;;;;5.10;2.03;;;18.10;56.90;;;;;;5012320;28;20501;-79
2022/07/06 06:15:01;;;;;;;5.78;2.40;;;18.20;57.10;;;;;;5012947;28;20052;-74
2022/07/06 06:17:27;;;;;;;6.00;2.58;;;18.40;56.40;;;;;;5012196;28;20022;-75
2022/07/06 06:19:52;;;;;;;5.30;2.47;;;18.40;56.20;;;;;;5012478;28;20025;-75
2022/07/06 06:22:18;;;;;;;3.00;2.28;;;18.50;55.80;;;;;;5012266;28;20022;-75
2022/07/06 06:24:44;;;;;;;5.68;2.45;;;18.50;55.30;;;;;;5011214;28;20118;-75
2022/07/06 06:27:10;;;;;;;4.72;2.10;;;18.50;55.70;;;;;;5012480;28;20521;-83
2022/07/06 06:29:35;;;;;;;5.97;2.85;;;18.70;55.10;;;;;;5012502;28;20034;-81
2022/07/06 06:32:01;;;;;;;5.55;2.30;;;18.80;53.70;;;;;;5012941;28;20080;-75
2022/07/06 06:34:26;;;;;;;3.75;2.25;;;18.70;53.60;;;;;;5012678;28;20034;-76
2022/07/06 06:36:52;;;;;;;6.20;2.85;;;18.60;54.80;;;;;;5012512;28;20034;-75
2022/07/06 06:39:17;;;;;;;4.55;2.50;;;18.80;54.00;;;;;;5012735;28;20022;-84
2022/07/06 06:41:43;;;;;;;3.92;2.10;;;18.70;53.30;;;;;;5012046;28;20046;-83
2022/07/06 06:44:08;;;;;;;4.20;1.98;;;18.80;53.70;;;;;;5013762;28;20030;-82
2022/07/06 06:46:34;;;;;;;5.85;2.47;;;19.10;53.30;;;;;;5013816;28;20026;-81
2022/07/06 06:49:00;;;;;;;8.13;2.90;;;19.30;52.50;;;;;;5012793;28;20143;-76
2022/07/06 06:51:26;;;;;;;6.28;2.92;;;19.40;51.90;;;;;;5011631;28;20030;-75
2022/07/06 06:53:51;;;;;;;6.32;3.20;;;19.30;52.20;;;;;;5012525;28;20041;-80
2022/07/06 06:56:17;;;;;;;6.53;2.63;;;19.30;52.50;;;;;;5012295;28;20024;-83
2022/07/06 06:58:43;;;;;;;5.95;2.80;;;19.20;53.30;;;;;;5010189;28;20037;-79
2022/07/06 07:01:08;;;;;;;7.85;3.13;;;19.40;52.90;;;;;;5011871;28;20026;-78
2022/07/06 07:03:35;;;;;;;9.57;2.80;;;19.50;52.10;;;;;;5012214;28;20055;-77
2022/07/06 07:06:01;;;;;;;6.63;3.00;;;19.60;51.90;;;;;;5012267;28;20036;-81
2022/07/06 07:08:26;;;;;;;6.78;2.72;;;19.60;52.50;;;;;;5013169;28;20466;-82
2022/07/06 07:10:52;;;;;;;7.20;2.70;;;19.70;52.30;;;;;;5011088;28;20022;-73
2022/07/06 07:13:17;;;;;;;4.25;1.88;;;20.00;51.90;;;;;;5011868;28;20034;-83
2022/07/06 07:15:43;;;;;;;5.00;2.60;;;20.30;50.60;;;;;;5011434;28;20030;-81
2022/07/06 07:18:09;;;;;;;5.20;2.03;;;20.50;49.50;;;;;;5011544;28;20030;-84
2022/07/06 07:20:34;;;;;;;6.70;2.53;;;20.60;48.50;;;;;;5011227;28;20029;-83
2022/07/06 07:23:00;;;;;;;6.18;2.80;;;20.80;48.40;;;;;;5010363;28;20022;-79
2022/07/06 07:25:27;;;;;;;6.07;2.35;;;20.70;48.20;;;;;;5010911;28;20038;-82
2022/07/06 07:27:53;;;;;;;6.88;2.95;;;20.40;48.80;;;;;;5012262;28;20030;-82
2022/07/06 07:30:18;;;;;;;8.35;2.72;;;20.30;50.00;;;;;;5011338;28;20550;-79
2022/07/06 07:32:44;;;;;;;5.78;3.08;;;20.20;50.60;;;;;;5010888;28;20038;-75
2022/07/06 07:35:10;;;;;;;8.05;2.60;;;20.00;51.20;;;;;;5011672;28;20067;-81
2022/07/06 07:37:36;;;;;;;5.03;2.55;;;20.00;51.50;;;;;;5010586;28;20034;-76
2022/07/06 07:40:02;;;;;;;7.22;3.33;;;19.90;52.50;;;;;;5010840;28;20053;-75
2022/07/06 07:42:27;;;;;;;6.50;2.33;;;20.00;51.00;;;;;;5011079;28;20033;-76
2022/07/06 07:44:53;;;;;;;19.05;3.03;;;20.20;52.40;;;;;;5011166;28;20442;-76
2022/07/06 07:47:19;;;;;;;8.77;2.70;;;20.50;51.20;;;;;;5011161;28;20029;-80
2022/07/06 07:49:44;;;;;;;4.25;1.98;;;20.90;50.00;;;;;;5011919;28;20018;-76
2022/07/06 07:52:12;;;;;;;4.93;1.85;;;21.20;47.90;;;;;;5010980;28;20348;-75
2022/07/06 07:54:38;;;;;;;5.82;2.42;;;21.50;46.90;;;;;;5010896;28;20018;-75
2022/07/06 07:57:05;;;;;;;10.20;4.05;;;21.60;47.10;;;;;;5010972;28;20034;-78
2022/07/06 07:59:30;;;;;;;7.13;3.13;;;21.70;47.00;;;;;;5011324;28;20029;-75
2022/07/06 08:01:56;;;;;;;5.00;2.75;;;21.80;46.60;;;;;;5010866;28;20029;-76
2022/07/06 08:04:21;;;;;;;3.65;2.13;;;21.80;45.70;;;;;;5010749;28;20025;-76
2022/07/06 08:06:47;;;;;;;4.82;2.40;;;21.90;46.30;;;;;;5010917;28;20052;-78
2022/07/06 08:09:13;;;;;;;5.07;2.00;;;22.00;45.80;;;;;;5010108;28;20083;-77
2022/07/06 08:11:39;;;;;;;5.30;2.42;;;22.10;45.70;;;;;;5011673;28;20033;-80
2022/07/06 08:14:04;;;;;;;6.88;2.80;;;21.90;45.80;;;;;;5011466;28;20034;-76
2022/07/06 08:16:31;;;;;;;4.93;2.00;;;22.00;45.80;;;;;;5011256;28;20034;-77
2022/07/06 08:18:57;;;;;;;2.30;1.52;;;22.00;46.20;;;;;;5011053;28;20135;-76
2022/07/06 08:21:23;;;;;;;9.15;2.20;;;22.20;45.80;;;;;;5011387;28;20470;-75
2022/07/06 08:23:49;;;;;;;2.30;1.70;;;22.40;44.80;;;;;;5014327;28;20046;-76
2022/07/06 08:26:14;;;;;;;3.85;1.65;;;22.60;44.30;;;;;;5011785;28;20095;-78
2022/07/06 08:28:40;;;;;;;2.65;1.73;;;22.80;43.30;;;;;;5011741;28;20105;-77
2022/07/06 08:31:05;;;;;;;4.25;1.90;;;22.90;43.50;;;;;;5014704;28;20042;-77
2022/07/06 08:33:31;;;;;;;7.57;2.83;;;23.00;42.60;;;;;;5016561;28;20045;-74
2022/07/06 08:35:57;;;;;;;6.25;2.42;;;22.90;43.00;;;;;;5013966;28;20474;-77
2022/07/06 08:38:22;;;;;;;5.65;1.60;;;22.10;44.80;;;;;;5016863;28;20052;-78
2022/07/06 08:40:49;;;;;;;2.72;1.75;;;22.00;45.90;;;;;;5011950;28;20022;-77
2022/07/06 08:43:15;;;;;;;5.03;1.90;;;22.20;44.80;;;;;;5014986;28;20022;-75
2022/07/06 08:45:43;;;;;;;2.90;1.50;;;22.50;44.50;;;;;;5011145;28;20515;-79
2022/07/06 08:48:11;;;;;;;4.75;1.90;;;22.80;43.80;;;;;;5010923;28;20102;-78
2022/07/06 08:50:37;;;;;;;4.50;1.60;;;23.00;43.00;;;;;;5010629;28;20087;-74
2022/07/06 08:53:03;;;;;;;8.38;2.00;;;23.20;42.60;;;;;;5009008;28;20052;-78
2022/07/06 08:55:29;;;;;;;6.20;2.13;;;23.30;43.40;;;;;;5010424;28;20026;-78
2022/07/06 08:57:56;;;;;;;2.60;1.90;;;23.30;43.50;;;;;;5010139;28;20038;-79
2022/07/06 09:00:23;;;;;;;9.32;1.83;;;23.20;42.40;;;;;;5009147;28;20094;-79
2022/07/06 09:02:55;;;;;;;5.10;1.98;;;23.10;42.90;;;;;;5009344;28;20490;-74
2022/07/06 09:05:22;;;;;;;5.38;2.00;;;23.00;43.60;;;;;;5009773;28;20014;-74
2022/07/06 09:07:49;;;;;;;5.55;1.60;;;23.10;43.30;;;;;;5009534;28;20107;-74
2022/07/06 09:10:18;;;;;;;3.35;1.48;;;23.20;43.50;;;;;;5009008;28;20473;-74
2022/07/06 09:12:44;;;;;;;3.45;1.70;;;23.30;43.40;;;;;;5009289;28;20041;-74
2022/07/06 09:15:10;;;;;;;3.67;2.00;;;23.30;42.50;;;;;;5009389;28;20034;-73
2022/07/06 09:17:39;;;;;;;6.10;1.73;;;23.40;43.10;;;;;;5009300;28;20034;-75
2022/07/06 09:20:08;;;;;;;5.57;1.80;;;23.50;42.70;;;;;;5009086;28;20018;-74
2022/07/06 09:22:34;;;;;;;3.30;1.70;;;23.70;41.70;;;;;;5012850;28;20022;-74
2022/07/06 09:25:07;;;;;;;5.95;2.08;;;23.80;41.10;;;;;;5012732;28;20099;-74
2022/07/06 09:27:41;;;;;;;3.78;2.30;;;23.70;38.70;;;;;;5012604;28;20026;-75
2022/07/06 09:30:09;;;;;;;2.05;1.63;;;23.20;40.10;;;;;;5011404;28;20045;-75
2022/07/06 09:32:46;;;;;;;3.10;1.67;;;23.20;41.00;;;;;;5013235;28;20041;-74
2022/07/06 09:35:22;;;;;;;2.92;1.48;;;23.30;41.50;;;;;;5012860;28;20014;-74
2022/07/06 09:38:10;;;;;;;3.78;2.05;;;23.50;40.60;;;;;;5012919;28;20054;-79
2022/07/06 09:40:41;;;;;;;3.83;1.88;;;23.50;39.40;;;;;;5012847;28;20078;-75
2022/07/06 09:43:14;;;;;;;4.18;1.65;;;23.20;39.10;;;;;;5012852;28;20022;-75
2022/07/06 09:45:41;;;;;;;3.65;1.80;;;23.00;40.50;;;;;;5012661;28;20079;-74
2022/07/06 09:48:27;;;;;;;2.85;1.73;;;23.20;40.10;;;;;;5012724;28;20420;-74
2022/07/06 09:50:55;;;;;;;9.60;2.33;;;23.40;38.90;;;;;;5010985;28;20057;-74
2022/07/06 09:53:24;;;;;;;3.55;1.75;;;23.60;38.30;;;;;;5012421;28;20049;-74
2022/07/06 09:56:00;;;;;;;5.90;1.85;;;23.50;38.20;;;;;;5012406;28;20018;-74
2022/07/06 09:58:26;;;;;;;4.78;1.80;;;23.50;37.70;;;;;;5012253;28;20026;-74
2022/07/06 10:00:52;;;;;;;3.67;2.00;;;23.60;39.10;;;;;;5012159;28;20037;-74
2022/07/06 10:03:18;;;;;;;2.22;1.80;;;23.40;38.50;;;;;;5011764;28;20053;-75
2022/07/06 10:05:47;;;;;;;5.20;1.60;;;23.40;37.90;;;;;;5012835;28;20083;-75
2022/07/06 10:08:13;;;;;;;4.43;1.58;;;23.60;38.30;;;;;;5012112;28;20026;-74
2022/07/06 10:10:41;;;;;;;5.20;3.00;;;23.80;39.40;;;;;;5011717;28;20053;-75
2022/07/06 10:13:07;;;;;;;5.38;1.80;;;23.80;37.90;;;;;;5011264;28;20042;-74
2022/07/06 10:15:34;;;;;;;3.95;1.83;;;23.60;37.20;;;;;;5011866;28;20106;-75
2022/07/06 10:18:02;;;;;;;5.40;1.75;;;23.30;38.60;;;;;;5010475;28;20030;-75
2022/07/06 10:20:33;;;;;;;4.28;1.83;;;23.60;38.70;;;;;;5011522;28;20071;-74
2022/07/06 10:23:00;;;;;;;2.22;1.50;;;24.00;37.50;;;;;;5011991;28;20048;-75
2022/07/06 10:25:27;;;;;;;5.50;1.95;;;24.40;37.90;;;;;;5011880;28;20022;-75
2022/07/06 10:27:53;;;;;;;5.53;2.17;;;24.20;36.60;;;;;;5010157;28;20478;-76
2022/07/06 10:30:20;;;;;;;4.95;2.08;;;23.70;38.70;;;;;;5011547;28;20050;-75
2022/07/06 10:32:48;;;;;;;4.13;1.83;;;23.40;38.50;;;;;;5009964;28;20066;-75
2022/07/06 10:35:15;;;;;;;2.75;1.63;;;23.60;38.60;;;;;;5010977;28;20014;-75
2022/07/06 10:37:41;;;;;;;4.15;1.65;;;24.00;38.20;;;;;;5011280;28;20415;-75
2022/07/06 10:43:03;;;;;;;4.65;1.60;;;24.90;36.60;;;;;;5011567;28;20083;-74
2022/07/06 10:45:28;;;;;;;3.13;1.73;;;25.30;34.60;;;;;;5011507;28;20026;-76
2022/07/06 10:48:12;;;;;;;3.90;1.75;;;25.30;35.20;;;;;;5011333;28;20025;-75
2022/07/06 10:50:49;;;;;;;6.45;2.03;;;25.50;34.30;;;;;;5010908;28;20033;-76
2022/07/06 10:53:17;;;;;;;4.82;1.63;;;25.70;34.50;;;;;;5011565;28;20103;-76
2022/07/06 10:55:47;;;;;;;2.63;1.48;;;25.90;34.70;;;;;;5011418;28;20102;-75
2022/07/06 10:58:13;;;;;;;1.30;1.20;;;26.00;34.10;;;;;;5011026;28;20015;-75
2022/07/06 11:00:51;;;;;;;3.53;1.77;;;25.90;33.40;;;;;;5009666;28;20034;-76
2022/07/06 11:03:41;;;;;;;3.78;1.60;;;25.70;34.50;;;;;;5011249;28;20463;-75
2022/07/06 11:06:14;;;;;;;4.45;1.65;;;25.70;33.00;;;;;;5011296;28;20099;-76
2022/07/06 11:08:42;;;;;;;3.90;1.55;;;25.80;33.40;;;;;;5010660;28;20063;-74
2022/07/06 11:11:12;;;;;;;6.45;1.90;;;26.00;33.00;;;;;;5018149;28;20041;-75
2022/07/06 11:13:48;;;;;;;5.95;1.73;;;26.30;32.80;;;;;;5010902;28;20030;-78
2022/07/06 11:16:15;;;;;;;2.75;1.40;;;26.60;32.30;;;;;;5010941;28;20029;-77
2022/07/06 11:18:46;;;;;;;7.55;2.55;;;26.90;31.50;;;;;;5010676;28;20030;-76
2022/07/06 11:21:22;;;;;;;3.40;1.60;;;27.20;32.20;;;;;;5010956;28;20489;-75
2022/07/06 11:23:50;;;;;;;4.72;1.73;;;27.30;30.80;;;;;;5010951;28;20026;-77
2022/07/06 11:26:16;;;;;;;2.17;1.40;;;27.30;30.60;;;;;;5011058;28;20025;-74
2022/07/06 11:28:44;;;;;;;2.05;1.20;;;27.30;31.60;;;;;;5010928;28;20395;-76
2022/07/06 11:31:10;;;;;;;4.50;1.50;;;27.50;30.90;;;;;;5011114;28;20533;-79
2022/07/06 11:33:36;;;;;;;6.43;1.40;;;27.20;30.40;;;;;;5011047;28;20604;-85
2022/07/06 11:36:19;;;;;;;3.28;1.40;;;26.90;29.60;;;;;;5010408;28;20025;-78
2022/07/06 11:38:46;;;;;;;4.35;1.50;;;26.70;31.70;;;;;;5009537;28;20446;-83
2022/07/06 11:41:16;;;;;;;4.40;1.40;;;26.80;31.70;;;;;;5013228;28;20018;-82
2022/07/06 11:43:44;;;;;;;5.97;1.92;;;26.90;30.00;;;;;;5009545;28;20114;-77
2022/07/06 11:46:30;;;;;;;6.72;1.83;;;27.00;31.60;;;;;;5010719;28;20382;-78
2022/07/06 11:49:15;;;;;;;5.10;1.45;;;26.50;32.20;;;;;;5010886;28;20034;-80
2022/07/06 11:51:41;;;;;;;6.05;1.80;;;26.10;32.40;;;;;;5009323;28;20116;-77
2022/07/06 11:54:18;;;;;;;5.43;1.80;;;26.00;32.60;;;;;;5012214;28;20398;-88
2022/07/06 11:56:54;;;;;;;1.83;1.02;;;25.70;33.00;;;;;;5013650;28;20474;-84
2022/07/06 11:59:25;;;;;;;3.92;1.70;;;25.50;34.00;;;;;;5011050;28;20045;-81
2022/07/06 12:02:10;;;;;;;2.75;1.33;;;25.70;32.80;;;;;;5010674;28;20024;-82
2022/07/06 12:04:38;;;;;;;3.00;1.45;;;26.00;33.30;;;;;;5009573;28;20029;-82
2022/07/06 12:07:08;;;;;;;3.67;1.27;;;26.50;31.40;;;;;;5011280;28;20025;-82
2022/07/06 12:09:35;;;;;;;4.22;1.45;;;26.90;30.70;;;;;;5010852;28;20026;-83
2022/07/06 12:12:02;;;;;;;3.97;1.30;;;27.00;31.90;;;;;;5009160;28;20431;-82
2022/07/06 12:14:29;;;;;;;3.20;1.67;;;26.90;30.90;;;;;;5009420;28;20384;-82
2022/07/06 12:16:54;;;;;;;4.03;1.60;;;26.20;32.90;;;;;;5009978;28;20133;-82
2022/07/06 12:19:23;;;;;;;4.28;1.77;;;25.80;33.80;;;;;;5009420;28;20438;-81
2022/07/06 12:21:50;;;;;;;2.78;1.58;;;25.20;36.20;;;;;;5010131;28;20051;-81
2022/07/06 12:24:23;;;;;;;3.33;1.30;;;25.10;35.70;;;;;;5010396;28;20207;-81
2022/07/06 12:26:50;;;;;;;6.00;1.63;;;25.10;35.50;;;;;;5008889;28;20078;-81
2022/07/06 12:29:16;;;;;;;2.47;1.10;;;25.70;34.20;;;;;;5008796;28;20072;-81
2022/07/06 12:31:43;;;;;;;4.65;1.20;;;26.10;33.40;;;;;;5008281;28;20124;-81
2022/07/06 12:34:31;;;;;;;2.33;1.40;;;26.80;33.70;;;;;;5010059;28;20026;-81
2022/07/06 12:36:59;;;;;;;2.53;1.30;;;27.40;31.20;;;;;;5010119;28;20121;-81
2022/07/06 12:39:27;;;;;;;5.10;1.80;;;27.00;31.00;;;;;;5010305;28;20182;-82
2022/07/06 12:42:06;;;;;;;3.65;1.23;;;27.20;30.00;;;;;;5010275;28;20022;-82
2022/07/06 12:44:43;;;;;;;4.45;1.80;;;27.00;28.60;;;;;;5009503;28;20026;-82
2022/07/06 12:47:30;;;;;;;2.15;1.30;;;26.60;30.30;;;;;;5010410;28;20049;-81
2022/07/06 12:50:16;;;;;;;6.50;1.20;;;26.00;32.50;;;;;;5009051;28;20413;-80
2022/07/06 12:52:42;;;;;;;6.88;1.67;;;25.30;33.40;;;;;;5009150;28;20049;-80